Time;durP1;ratioP1;P1;durP2;ratioP2;P2;SDS_P1;SDS_P2;PMS_P1;PMS_P2;Temp;Humidity;BMP_temperature;BMP_pressure;BME280_temperature;BME280_humidity;BME280_pressure;Samples;Min_cycle;Max_cycle;Signal;HPM_P1;HPM_P2
2023/12/01 00:02:02;;;;;;;30.33;19.73;;;;;;;1.89;74.10;93488.06;4902790;29;20059;-79
2023/12/01 00:04:27;;;;;;;32.83;20.42;;;;;;;1.93;73.89;93510.88;4887582;29;20029;-79
2023/12/01 00:06:52;;;;;;;28.02;17.75;;;;;;;2.01;72.88;93496.44;4888557;29;20041;-79
2023/12/01 00:09:18;;;;;;;24.13;17.05;;;;;;;1.99;72.78;93469.69;4883978;29;20039;-80
2023/12/01 00:11:43;;;;;;;24.65;17.15;;;;;;;2.21;71.46;93503.41;4881140;29;20048;-76
2023/12/01 00:14:09;;;;;;;26.50;18.02;;;;;;;1.92;72.02;93450.81;4888358;29;20036;-80
2023/12/01 00:16:38;;;;;;;26.95;16.80;;;;;;;2.07;72.27;93484.84;4882640;29;20031;-78
2023/12/01 00:19:03;;;;;;;30.35;21.17;;;;;;;1.57;75.13;93489.13;4882159;29;20036;-79
2023/12/01 00:21:29;;;;;;;27.30;17.70;;;;;;;1.78;74.45;93470.75;4888227;29;20061;-80
2023/12/01 00:23:54;;;;;;;29.20;18.20;;;;;;;2.02;73.06;93477.78;4888779;29;20123;-78
2023/12/01 00:26:20;;;;;;;27.52;18.10;;;;;;;1.59;74.63;93488.88;4884810;29;20516;-79
2023/12/01 00:28:45;;;;;;;30.60;19.08;;;;;;;1.39;75.23;93463.50;4886883;29;20559;-79
2023/12/01 00:31:11;;;;;;;30.77;19.52;;;;;;;1.56;74.54;93484.97;4900564;29;20035;-79
2023/12/01 00:33:38;;;;;;;26.70;18.77;;;;;;;1.41;75.44;93471.88;4886336;29;20043;-78
2023/12/01 00:36:06;;;;;;;33.67;21.55;;;;;;;1.30;76.17;93486.03;4884402;29;20037;-80
2023/12/01 00:38:31;;;;;;;32.83;20.50;;;;;;;1.03;77.32;93467.19;4882561;29;20314;-77
2023/12/01 00:40:57;;;;;;;36.35;22.90;;;;;;;0.72;77.86;93453.28;4885301;29;20197;-77
2023/12/01 00:43:22;;;;;;;31.42;21.77;;;;;;;1.00;78.37;93449.38;4887354;29;20020;-81
2023/12/01 00:45:48;;;;;;;33.05;19.02;;;;;;;1.29;76.37;93476.59;4883269;29;20037;-81
2023/12/01 00:48:14;;;;;;;34.97;22.15;;;;;;;1.11;76.52;93440.47;4885893;29;20032;-80
2023/12/01 00:50:42;;;;;;;34.67;21.48;;;;;;;1.36;76.55;93482.38;4887460;29;20029;-80
2023/12/01 00:53:08;;;;;;;34.70;21.27;;;;;;;1.51;75.64;93468.47;4884336;29;20555;-80
2023/12/01 00:55:34;;;;;;;28.13;18.88;;;;;;;1.80;74.06;93487.00;4884998;29;20051;-80
2023/12/01 00:58:00;;;;;;;29.48;19.83;;;;;;;1.92;73.17;93492.75;4888179;29;20575;-78
2023/12/01 01:00:25;;;;;;;31.15;19.70;;;;;;;1.73;73.48;93483.88;4899740;29;20041;-81
2023/12/01 01:02:51;;;;;;;31.42;19.38;;;;;;;1.77;73.44;93485.69;4882804;29;20562;-77
2023/12/01 01:05:17;;;;;;;29.23;18.98;;;;;;;1.84;72.86;93460.00;4887781;29;20111;-79
2023/12/01 01:07:43;;;;;;;30.80;19.80;;;;;;;1.86;72.79;93493.81;4883220;29;20040;-78
2023/12/01 01:10:09;;;;;;;31.88;19.92;;;;;;;1.56;73.65;93450.91;4885510;29;20028;-79
2023/12/01 01:12:43;;;;;;;30.77;18.75;;;;;;;1.76;73.53;93417.81;4884333;29;20041;-79
2023/12/01 01:15:09;;;;;;;28.58;19.83;;;;;;;1.90;72.89;93431.94;4886362;29;20044;-79
2023/12/01 01:17:35;;;;;;;28.58;19.30;;;;;;;2.17;71.21;93453.34;4900683;29;20039;-79
2023/12/01 01:20:02;;;;;;;31.38;17.92;;;;;;;2.37;70.32;93466.38;4885733;29;20336;-78
2023/12/01 01:22:27;;;;;;;29.77;19.15;;;;;;;2.19;71.11;93456.47;4886690;29;20629;-78
2023/12/01 01:24:53;;;;;;;32.78;20.48;;;;;;;2.15;70.96;93434.47;4887928;29;20128;-79
2023/12/01 01:27:19;;;;;;;30.55;19.73;;;;;;;2.00;71.77;93426.66;4884905;29;20037;-77
2023/12/01 01:29:45;;;;;;;29.98;20.02;;;;;;;2.33;70.12;93446.19;4885895;29;20067;-80
2023/12/01 01:32:11;;;;;;;30.30;19.60;;;;;;;2.23;70.76;93460.13;4880208;29;20123;-79
2023/12/01 01:34:37;;;;;;;30.20;20.80;;;;;;;1.63;72.99;93446.16;4884652;29;20071;-79
2023/12/01 01:37:02;;;;;;;32.80;20.35;;;;;;;1.84;72.55;93443.47;4883944;29;21219;-78
2023/12/01 01:39:28;;;;;;;35.75;21.88;;;;;;;1.90;72.99;93440.59;4882013;29;20044;-77
2023/12/01 01:41:56;;;;;;;33.95;21.65;;;;;;;2.25;72.21;93428.38;4881782;29;20151;-78
2023/12/01 01:44:21;;;;;;;29.75;19.80;;;;;;;2.36;69.98;93430.66;4885973;29;20044;-78
2023/12/01 01:46:47;;;;;;;33.67;19.77;;;;;;;2.09;70.24;93410.09;4883556;29;20031;-79
2023/12/01 01:49:14;;;;;;;31.67;22.15;;;;;;;2.02;71.83;93432.41;4899557;29;20518;-78
2023/12/01 01:51:39;;;;;;;30.13;20.20;;;;;;;2.09;71.89;93435.53;4882388;29;20088;-78
2023/12/01 01:54:06;;;;;;;30.67;20.45;;;;;;;2.20;71.07;93397.72;4883417;29;20885;-79
2023/12/01 01:56:33;;;;;;;34.22;21.85;;;;;;;2.09;71.70;93438.16;4882525;29;20056;-80
2023/12/01 01:59:00;;;;;;;33.05;21.42;;;;;;;1.95;72.26;93437.97;4885258;29;20436;-79
2023/12/01 02:01:25;;;;;;;32.45;20.40;;;;;;;1.83;72.61;93416.47;4882393;29;20111;-79
2023/12/01 02:03:54;;;;;;;31.02;19.55;;;;;;;1.92;72.41;93382.63;4886704;29;20519;-81
2023/12/01 02:06:30;;;;;;;33.03;20.45;;;;;;;2.09;71.48;93440.78;4898745;29;20319;-81
2023/12/01 02:08:57;;;;;;;35.25;23.48;;;;;;;1.26;75.94;93453.56;4884551;29;20469;-80
2023/12/01 02:11:23;;;;;;;32.85;21.48;;;;;;;1.81;75.51;93417.78;4886244;29;20056;-80
2023/12/01 02:13:49;;;;;;;33.20;21.45;;;;;;;1.90;73.50;93424.88;4886292;29;20564;-79
2023/12/01 02:16:15;;;;;;;33.67;20.88;;;;;;;1.83;73.46;93420.91;4884464;29;20021;-80
2023/12/01 02:18:40;;;;;;;36.17;21.33;;;;;;;1.04;76.48;93408.50;4883519;29;20053;-79
2023/12/01 02:21:06;;;;;;;36.63;23.02;;;;;;;1.56;75.75;93414.19;4901998;29;20043;-75
2023/12/01 02:23:32;;;;;;;36.42;22.75;;;;;;;1.75;75.25;93411.78;4887528;29;20036;-80
2023/12/01 02:25:57;;;;;;;31.63;20.30;;;;;;;1.77;74.13;93414.13;4902940;29;20488;-81
2023/12/01 02:28:23;;;;;;;28.48;20.23;;;;;;;1.86;74.63;93415.16;4889745;29;20036;-81
2023/12/01 02:30:50;;;;;;;34.35;21.20;;;;;;;1.81;74.55;93423.03;4889106;29;20048;-80
2023/12/01 02:33:17;;;;;;;31.92;20.48;;;;;;;1.87;73.55;93420.13;4873684;29;20095;-78
2023/12/01 02:35:47;;;;;;;38.83;23.77;;;;;;;1.76;73.42;93395.00;4888460;29;20048;-78
2023/12/01 02:38:13;;;;;;;35.08;23.20;;;;;;;2.14;72.61;93390.91;4890314;29;20540;-81
2023/12/01 02:40:49;;;;;;;32.10;20.10;;;;;;;1.81;74.23;93457.13;4889670;29;20028;-81
2023/12/01 02:43:16;;;;;;;31.27;19.55;;;;;;;1.26;77.84;93440.47;4891411;29;20039;-80
2023/12/01 02:45:42;;;;;;;32.33;21.45;;;;;;;1.45;77.02;93433.59;4890691;29;20037;-80
2023/12/01 02:48:08;;;;;;;28.73;19.55;;;;;;;1.57;76.85;93434.09;4887381;29;20043;-80
2023/12/01 02:50:34;;;;;;;33.13;20.65;;;;;;;1.82;76.12;93404.41;4886917;29;20050;-81
2023/12/01 02:53:01;;;;;;;35.10;18.38;;;;;;;2.00;74.97;93421.41;4887441;29;21098;-81
2023/12/01 02:55:27;;;;;;;32.00;19.15;;;;;;;1.68;76.46;93398.94;4886895;29;20028;-79
2023/12/01 02:57:53;;;;;;;26.33;17.45;;;;;;;2.04;74.23;93406.72;4889812;29;20043;-79
2023/12/01 03:00:19;;;;;;;28.13;17.58;;;;;;;1.88;74.36;93394.72;4889385;29;20189;-80
2023/12/01 03:02:45;;;;;;;26.60;17.67;;;;;;;2.15;74.20;93412.69;4887625;29;20032;-80
2023/12/01 03:05:11;;;;;;;24.33;16.50;;;;;;;2.42;72.98;93445.34;4887385;29;20033;-81
2023/12/01 03:07:38;;;;;;;23.98;16.60;;;;;;;1.94;74.73;93427.72;4889981;29;20071;-80
2023/12/01 03:10:07;;;;;;;27.73;16.67;;;;;;;1.84;75.40;93410.16;4887384;29;20045;-81
2023/12/01 03:12:36;;;;;;;25.70;15.23;;;;;;;2.11;74.85;93443.16;4890357;29;20095;-80
2023/12/01 03:15:04;;;;;;;18.40;12.95;;;;;;;2.01;75.25;93370.53;4885139;29;20045;-80
2023/12/01 03:17:30;;;;;;;16.02;11.15;;;;;;;1.78;77.56;93434.03;4890282;29;20033;-79
2023/12/01 03:19:56;;;;;;;13.52;8.48;;;;;;;1.93;77.52;93405.97;4889880;29;20028;-79
2023/12/01 03:22:21;;;;;;;18.05;8.88;;;;;;;2.25;77.14;93428.38;4886647;29;20036;-80
2023/12/01 03:24:47;;;;;;;13.05;8.23;;;;;;;2.42;76.62;93420.94;4887182;29;20101;-80
2023/12/01 03:27:16;;;;;;;10.48;7.55;;;;;;;2.45;77.07;93409.91;4886771;29;20028;-80
2023/12/01 03:29:42;;;;;;;12.40;7.35;;;;;;;2.60;76.32;93409.03;4890351;29;20032;-81
2023/12/01 03:32:08;;;;;;;16.60;9.02;;;;;;;1.59;79.32;93321.91;4887307;29;20043;-78
2023/12/01 03:34:34;;;;;;;13.25;7.70;;;;;;;2.25;79.27;93423.94;4889997;29;20104;-80
2023/12/01 03:37:00;;;;;;;11.77;7.78;;;;;;;2.24;79.06;93362.00;4887155;29;20052;-79
2023/12/01 03:39:26;;;;;;;16.38;10.00;;;;;;;2.12;79.85;93351.03;4891989;29;20706;-80
2023/12/01 03:41:52;;;;;;;11.57;7.30;;;;;;;2.53;78.46;93391.72;4888553;29;20033;-79
2023/12/01 03:44:18;;;;;;;8.52;6.50;;;;;;;3.02;76.88;93401.34;4887940;29;20025;-81
2023/12/01 03:46:43;;;;;;;10.15;6.72;;;;;;;2.85;77.12;93400.94;4883660;29;20044;-81
2023/12/01 03:49:09;;;;;;;8.50;6.30;;;;;;;3.14;76.81;93420.16;4882254;29;20392;-81
2023/12/01 03:51:36;;;;;;;9.52;7.03;;;;;;;3.27;76.20;93385.34;4885528;29;20035;-78
2023/12/01 03:54:02;;;;;;;10.80;6.35;;;;;;;3.39;75.40;93419.13;4903053;29;20048;-80
2023/12/01 03:56:28;;;;;;;7.03;5.60;;;;;;;3.54;74.52;93397.16;4887991;29;20041;-80
2023/12/01 03:58:55;;;;;;;7.57;5.32;;;;;;;3.67;74.88;93407.03;4887914;29;20572;-80
2023/12/01 04:01:25;;;;;;;6.95;5.35;;;;;;;3.72;73.03;93372.78;4886596;29;20068;-80
2023/12/01 04:03:51;;;;;;;10.10;5.80;;;;;;;3.79;73.20;93391.63;4890162;29;20040;-81
2023/12/01 04:06:17;;;;;;;8.90;5.63;;;;;;;4.04;72.94;93409.75;4887630;29;20397;-79
2023/12/01 04:08:42;;;;;;;10.38;5.45;;;;;;;4.08;71.75;93402.88;4889014;29;20036;-80
2023/12/01 04:11:08;;;;;;;7.78;5.05;;;;;;;3.82;72.61;93368.19;4886191;29;20518;-80
2023/12/01 04:13:39;;;;;;;7.60;5.22;;;;;;;4.07;72.41;93401.28;4890776;29;20029;-80
2023/12/01 04:16:08;;;;;;;10.57;5.28;;;;;;;3.96;72.50;93370.16;4903002;29;20052;-81
2023/12/01 04:18:35;;;;;;;11.07;6.32;;;;;;;3.92;72.87;93412.00;4899898;29;20043;-80
2023/12/01 04:21:00;;;;;;;8.65;5.43;;;;;;;3.83;72.18;93384.75;4888584;29;20072;-80
2023/12/01 04:23:26;;;;;;;11.00;6.50;;;;;;;3.79;72.44;93360.06;4890384;29;20185;-80
2023/12/01 04:25:51;;;;;;;8.00;4.97;;;;;;;3.71;74.33;93408.03;4899711;29;20530;-80
2023/12/01 04:28:17;;;;;;;11.32;7.50;;;;;;;3.81;72.95;93368.47;4880436;29;20025;-81
2023/12/01 04:30:43;;;;;;;15.32;8.35;;;;;;;4.08;71.82;93408.13;4885812;29;20041;-80
2023/12/01 04:33:08;;;;;;;13.07;10.85;;;;;;;3.79;71.67;93375.84;4888131;29;20508;-80
2023/12/01 04:35:35;;;;;;;10.90;9.02;;;;;;;3.92;71.61;93396.22;4887300;29;20055;-81
2023/12/01 04:38:05;;;;;;;17.15;9.38;;;;;;;3.32;72.68;93321.44;4888527;29;20060;-81
2023/12/01 04:40:32;;;;;;;26.60;15.27;;;;;;;3.62;72.75;93380.81;4885902;29;20051;-81
2023/12/01 04:42:58;;;;;;;21.25;11.00;;;;;;;3.77;73.11;93391.91;4886460;29;20576;-80
2023/12/01 04:45:31;;;;;;;15.95;8.57;;;;;;;3.44;73.77;93368.34;4883426;29;20232;-80
2023/12/01 04:47:57;;;;;;;15.10;10.07;;;;;;;3.59;74.42;93399.75;4885790;29;20059;-81
2023/12/01 04:50:26;;;;;;;12.10;7.53;;;;;;;3.21;74.40;93319.97;4886112;29;20582;-80
2023/12/01 04:52:56;;;;;;;13.38;9.10;;;;;;;3.48;74.71;93393.03;4884513;29;20459;-80
2023/12/01 04:55:31;;;;;;;13.65;6.78;;;;;;;2.81;76.84;93337.69;4901262;29;20065;-79
2023/12/01 04:57:58;;;;;;;10.15;7.18;;;;;;;3.03;77.04;93368.75;4886540;29;20546;-81
2023/12/01 05:00:27;;;;;;;10.13;6.50;;;;;;;3.20;76.71;93395.41;4884547;29;20052;-80
2023/12/01 05:02:57;;;;;;;11.55;8.35;;;;;;;3.21;76.30;93383.03;4886059;29;20044;-80
2023/12/01 05:05:27;;;;;;;10.90;8.10;;;;;;;3.60;75.26;93401.31;4901486;29;20123;-80
2023/12/01 05:07:57;;;;;;;12.82;8.10;;;;;;;3.72;74.05;93378.06;4886714;29;20035;-79
2023/12/01 05:10:25;;;;;;;11.18;7.55;;;;;;;4.00;73.45;93392.97;4883659;29;20025;-81
2023/12/01 05:12:54;;;;;;;13.88;5.68;;;;;;;3.79;72.47;93336.41;4887469;29;20033;-81
2023/12/01 05:15:24;;;;;;;8.93;6.03;;;;;;;3.83;74.25;93387.38;4884657;29;20326;-80
2023/12/01 05:17:58;;;;;;;23.13;9.52;;;;;;;4.24;72.57;93390.31;4889245;29;20072;-81
2023/12/01 05:20:25;;;;;;;10.80;6.70;;;;;;;4.02;72.89;93390.84;4895742;29;20567;-80
2023/12/01 05:22:58;;;;;;;16.17;7.88;;;;;;;4.17;72.40;93379.31;4889756;29;20028;-79
2023/12/01 05:25:28;;;;;;;18.13;8.23;;;;;;;4.24;72.61;93404.25;4885518;29;20503;-76
2023/12/01 05:27:54;;;;;;;21.77;10.40;;;;;;;4.44;71.99;93405.84;4885748;29;20101;-80
2023/12/01 05:30:23;;;;;;;32.25;12.65;;;;;;;4.44;71.05;93373.47;4885420;29;20588;-79
2023/12/01 05:32:51;;;;;;;12.52;5.88;;;;;;;4.71;70.49;93389.41;4887795;29;20583;-82
2023/12/01 05:35:18;;;;;;;16.42;10.05;;;;;;;4.86;70.19;93389.16;4881598;29;20522;-78
2023/12/01 05:37:48;;;;;;;15.07;7.13;;;;;;;5.01;68.99;93407.38;4886802;29;20052;-81
2023/12/01 05:40:15;;;;;;;7.97;6.32;;;;;;;4.25;71.35;93353.19;4886757;29;20031;-80
2023/12/01 05:42:42;;;;;;;9.27;6.40;;;;;;;4.47;71.90;93393.97;4883020;29;20043;-80
2023/12/01 05:45:12;;;;;;;9.55;7.70;;;;;;;4.02;73.79;93403.19;4886065;29;20512;-81
2023/12/01 05:47:48;;;;;;;9.88;6.57;;;;;;;4.32;73.49;93391.53;4906503;29;20044;-80
2023/12/01 05:50:15;;;;;;;7.28;4.85;;;;;;;4.58;72.52;93390.13;4900616;29;20127;-80
2023/12/01 05:52:45;;;;;;;11.52;7.50;;;;;;;4.78;71.35;93410.91;4898385;29;20044;-78
2023/12/01 05:55:17;;;;;;;10.20;7.88;;;;;;;4.82;70.81;93382.91;4906724;29;20044;-80
2023/12/01 05:57:48;;;;;;;12.93;8.35;;;;;;;4.97;70.41;93400.34;4893709;29;20037;-79
2023/12/01 06:00:19;;;;;;;10.73;6.88;;;;;;;5.12;68.90;93398.25;4899642;29;20053;-79
2023/12/01 06:02:46;;;;;;;10.07;7.18;;;;;;;4.70;70.41;93369.38;4888134;29;20056;-79
2023/12/01 06:05:15;;;;;;;18.00;9.05;;;;;;;4.69;70.35;93402.88;4886516;29;20055;-79
2023/12/01 06:07:49;;;;;;;11.15;8.38;;;;;;;4.47;70.44;93373.69;4889270;29;20029;-79
2023/12/01 06:10:15;;;;;;;10.93;7.80;;;;;;;4.42;70.96;93365.06;4887028;29;20036;-79
2023/12/01 06:12:41;;;;;;;27.63;15.13;;;;;;;4.58;70.38;93405.94;4884819;29;20057;-80
2023/12/01 06:15:09;;;;;;;14.35;9.00;;;;;;;4.49;71.52;93412.91;4884704;29;20041;-76
2023/12/01 06:17:38;;;;;;;14.60;8.30;;;;;;;3.90;73.70;93335.22;4905036;29;20059;-80
2023/12/01 06:20:05;;;;;;;10.45;6.70;;;;;;;4.23;73.75;93410.56;4905129;29;20041;-79
2023/12/01 06:22:31;;;;;;;18.27;7.80;;;;;;;4.36;73.55;93389.91;4897713;29;20041;-80
2023/12/01 06:24:56;;;;;;;12.45;7.18;;;;;;;4.45;73.33;93393.47;4891028;29;20040;-80
2023/12/01 06:27:23;;;;;;;14.57;6.88;;;;;;;4.56;72.67;93395.66;4884886;29;20050;-80
2023/12/01 06:29:52;;;;;;;15.55;8.35;;;;;;;4.77;72.25;93408.56;4888847;29;20060;-80
2023/12/01 06:32:17;;;;;;;18.55;12.35;;;;;;;4.85;71.92;93402.63;4886834;29;20064;-80
2023/12/01 06:34:43;;;;;;;18.48;11.27;;;;;;;4.97;70.83;93381.88;4889597;29;20119;-80
2023/12/01 06:37:08;;;;;;;12.38;8.57;;;;;;;5.14;70.71;93392.66;4888742;29;20028;-80
2023/12/01 06:39:34;;;;;;;12.48;7.68;;;;;;;5.23;69.39;93403.34;4890103;29;20055;-80
2023/12/01 06:41:59;;;;;;;14.05;9.73;;;;;;;5.07;70.11;93408.09;4890381;29;20492;-80
2023/12/01 06:44:25;;;;;;;15.38;9.65;;;;;;;5.09;69.68;93396.16;4886257;29;20694;-80
2023/12/01 06:46:51;;;;;;;13.85;7.53;;;;;;;5.24;69.10;93381.16;4888781;29;20115;-80
2023/12/01 06:49:16;;;;;;;12.07;8.52;;;;;;;5.47;68.23;93406.63;4886493;29;20035;-80
2023/12/01 06:51:42;;;;;;;10.55;7.97;;;;;;;5.41;68.77;93386.69;4885909;29;20037;-80
2023/12/01 06:54:10;;;;;;;12.57;7.32;;;;;;;5.42;68.71;93399.59;4900842;29;20059;-79
2023/12/01 06:56:37;;;;;;;12.63;7.18;;;;;;;5.45;67.88;93379.75;4884741;29;20597;-80
2023/12/01 06:59:06;;;;;;;14.77;8.63;;;;;;;5.39;69.14;93412.56;4887189;29;20048;-79
2023/12/01 07:01:31;;;;;;;16.30;9.88;;;;;;;5.36;68.72;93394.69;4885538;29;20601;-79
2023/12/01 07:03:57;;;;;;;14.32;8.85;;;;;;;5.59;68.35;93425.41;4905524;29;20044;-79
2023/12/01 07:06:23;;;;;;;17.02;9.43;;;;;;;5.73;67.96;93436.75;4905864;29;20043;-80
2023/12/01 07:08:49;;;;;;;13.38;8.60;;;;;;;5.48;68.04;93400.28;4906320;29;20326;-82
2023/12/01 07:11:16;;;;;;;24.15;8.07;;;;;;;5.55;68.79;93419.13;4899972;29;20774;-81
2023/12/01 07:13:42;;;;;;;13.93;7.15;;;;;;;5.44;69.63;93413.25;4888130;29;20761;-78
2023/12/01 07:16:09;;;;;;;11.43;7.47;;;;;;;5.61;69.23;93415.34;4904681;29;20076;-81
2023/12/01 07:18:40;;;;;;;17.17;10.15;;;;;;;5.40;69.84;93398.31;4889952;29;20043;-78
2023/12/01 07:21:08;;;;;;;16.52;10.20;;;;;;;5.65;69.56;93397.84;4909621;29;20047;-78
2023/12/01 07:23:40;;;;;;;14.20;9.10;;;;;;;5.64;69.64;93413.97;4910913;29;20044;-80
2023/12/01 07:26:07;;;;;;;23.02;10.13;;;;;;;5.68;69.37;93415.72;4905382;29;20036;-78
2023/12/01 07:28:32;;;;;;;17.27;8.38;;;;;;;5.34;69.80;93357.25;4896593;29;20061;-77
2023/12/01 07:31:01;;;;;;;11.23;7.18;;;;;;;5.35;70.98;93383.34;4896546;29;20041;-79
2023/12/01 07:33:26;;;;;;;10.57;6.15;;;;;;;5.24;71.13;93375.91;4904644;29;20759;-79
2023/12/01 07:35:52;;;;;;;11.23;7.35;;;;;;;5.09;72.26;93348.72;4900488;29;20159;-81
2023/12/01 07:38:17;;;;;;;15.25;11.05;;;;;;;5.23;71.88;93396.22;4877483;29;20578;-80
2023/12/01 07:40:46;;;;;;;21.67;13.27;;;;;;;4.87;72.47;93361.75;4874632;29;20028;-78
2023/12/01 07:43:11;;;;;;;27.65;16.63;;;;;;;4.24;73.72;93290.28;4880051;29;20502;-77
2023/12/01 07:45:37;;;;;;;20.40;14.85;;;;;;;5.35;71.24;93422.13;4880942;29;20324;-80
2023/12/01 07:48:02;;;;;;;23.20;14.82;;;;;;;5.33;70.84;93401.34;4875914;29;20040;-81
2023/12/01 07:50:28;;;;;;;20.85;13.50;;;;;;;5.62;70.05;93410.84;4880290;29;20041;-81
2023/12/01 07:52:53;;;;;;;17.35;10.68;;;;;;;5.56;70.14;93432.06;4881239;29;20031;-81
2023/12/01 07:55:22;;;;;;;19.33;12.43;;;;;;;5.80;69.89;93433.72;4877757;29;20433;-77
2023/12/01 07:57:48;;;;;;;22.80;13.73;;;;;;;5.91;69.07;93392.91;4881619;29;20329;-79
2023/12/01 08:00:16;;;;;;;24.00;12.35;;;;;;;5.58;70.53;93424.63;4880275;29;20052;-81
2023/12/01 08:02:43;;;;;;;13.07;9.75;;;;;;;5.24;72.24;93444.44;4879353;29;20041;-79
2023/12/01 08:05:15;;;;;;;14.35;9.57;;;;;;;5.03;72.59;93399.97;4881437;29;20112;-80
2023/12/01 08:07:45;;;;;;;15.73;10.65;;;;;;;5.06;72.48;93380.94;4879631;29;20728;-80
2023/12/01 08:10:15;;;;;;;24.50;12.18;;;;;;;5.51;71.66;93424.22;4888453;29;20032;-80
2023/12/01 08:12:42;;;;;;;14.63;11.45;;;;;;;5.23;72.31;93427.88;4876671;29;20403;-81
2023/12/01 08:15:08;;;;;;;19.50;11.18;;;;;;;5.09;72.39;93396.16;4872043;29;20443;-78
2023/12/01 08:17:34;;;;;;;31.98;14.13;;;;;;;5.47;71.90;93428.53;4879000;29;20560;-80
2023/12/01 08:19:59;;;;;;;20.85;14.70;;;;;;;5.35;71.68;93443.22;4881787;29;20063;-80
2023/12/01 08:22:25;;;;;;;21.90;14.57;;;;;;;5.25;72.29;93403.84;4875167;29;20385;-79
2023/12/01 08:24:50;;;;;;;30.77;15.60;;;;;;;5.69;70.70;93440.25;4893306;29;20359;-79
2023/12/01 08:27:16;;;;;;;20.60;14.63;;;;;;;5.73;69.88;93452.59;4878153;29;20040;-81
2023/12/01 08:29:42;;;;;;;14.05;11.32;;;;;;;5.81;69.12;93449.28;4880855;29;20562;-77
2023/12/01 08:32:08;;;;;;;17.65;11.32;;;;;;;5.84;70.11;93464.53;4877030;29;20037;-78
2023/12/01 08:34:33;;;;;;;19.38;12.23;;;;;;;5.46;70.18;93426.16;4879217;29;20031;-80
2023/12/01 08:36:59;;;;;;;20.52;13.70;;;;;;;5.70;70.66;93421.50;4878198;29;20064;-80
2023/12/01 08:39:24;;;;;;;20.20;13.30;;;;;;;5.90;69.45;93446.75;4875949;29;20045;-80
2023/12/01 08:41:53;;;;;;;17.77;11.60;;;;;;;5.56;69.16;93389.06;4878125;29;20043;-80
2023/12/01 08:44:19;;;;;;;21.90;12.70;;;;;;;5.52;71.47;93435.56;4876355;29;20043;-79
2023/12/01 08:46:45;;;;;;;20.15;11.77;;;;;;;5.88;69.92;93454.94;4880260;29;20042;-79
2023/12/01 08:49:10;;;;;;;18.88;11.38;;;;;;;5.60;71.29;93437.53;4872007;29;20752;-80
2023/12/01 08:51:36;;;;;;;18.05;9.00;;;;;;;5.34;71.33;93392.34;4875851;29;20088;-77
2023/12/01 08:54:02;;;;;;;13.38;7.90;;;;;;;5.61;71.63;93427.75;4879292;29;20169;-77
2023/12/01 08:56:32;;;;;;;10.48;7.22;;;;;;;5.29;72.33;93389.78;4888766;29;20060;-80
2023/12/01 08:58:57;;;;;;;11.90;6.38;;;;;;;5.34;72.97;93400.25;4878578;29;20060;-79
2023/12/01 09:01:23;;;;;;;9.85;6.65;;;;;;;5.45;72.73;93398.22;4870621;29;20357;-80
2023/12/01 09:03:48;;;;;;;16.23;9.88;;;;;;;5.74;72.37;93385.56;4878893;29;20467;-79
2023/12/01 09:06:14;;;;;;;18.60;11.13;;;;;;;5.89;71.23;93372.06;4878368;29;20033;-80
2023/12/01 09:08:39;;;;;;;10.13;5.72;;;;;;;5.79;71.58;93345.88;4879242;29;20034;-81
2023/12/01 09:11:06;;;;;;;6.82;3.78;;;;;;;6.44;71.01;93329.75;4876135;29;20047;-80
2023/12/01 09:13:34;;;;;;;8.30;4.93;;;;;;;6.51;69.07;93335.41;4878068;29;20528;-79
2023/12/01 09:16:00;;;;;;;9.95;5.70;;;;;;;6.27;69.43;93361.28;4893366;29;20479;-80
2023/12/01 09:18:27;;;;;;;19.08;5.88;;;;;;;6.15;70.52;93356.50;4889622;29;20595;-81
2023/12/01 09:20:52;;;;;;;8.98;7.20;;;;;;;6.00;70.71;93320.66;4879574;29;20044;-80
2023/12/01 09:23:18;;;;;;;14.25;6.47;;;;;;;6.55;69.62;93362.81;4879145;29;20036;-80
2023/12/01 09:25:43;;;;;;;15.98;6.53;;;;;;;6.58;69.78;93399.19;4875730;29;20036;-80
2023/12/01 09:28:09;;;;;;;9.93;6.03;;;;;;;6.33;69.87;93394.44;4876288;29;20112;-80
2023/12/01 09:30:35;;;;;;;9.48;5.43;;;;;;;6.04;69.66;93320.03;4880971;29;20532;-80
2023/12/01 09:33:00;;;;;;;11.30;5.50;;;;;;;6.31;70.76;93362.28;4890215;29;20045;-81
2023/12/01 09:35:27;;;;;;;10.27;5.22;;;;;;;6.44;71.04;93398.44;4879723;29;20043;-80
2023/12/01 09:37:53;;;;;;;9.30;5.22;;;;;;;6.71;70.02;93390.44;4873232;29;20093;-80
2023/12/01 09:40:18;;;;;;;10.95;5.18;;;;;;;7.05;68.77;93407.63;4877863;29;20517;-79
2023/12/01 09:42:46;;;;;;;8.05;5.25;;;;;;;7.03;68.43;93418.53;4878975;29;20040;-81
2023/12/01 09:45:20;;;;;;;8.10;5.07;;;;;;;7.24;68.02;93408.22;4892553;29;20394;-79
2023/12/01 09:47:52;;;;;;;10.18;5.85;;;;;;;7.41;67.49;93397.78;4889828;29;20142;-80
2023/12/01 09:50:18;;;;;;;12.00;6.35;;;;;;;7.29;67.97;93387.72;4881639;29;20041;-80
2023/12/01 09:52:43;;;;;;;14.60;6.75;;;;;;;7.47;67.44;93377.25;4879725;29;20025;-80
2023/12/01 09:55:10;;;;;;;13.57;8.50;;;;;;;7.69;66.22;93388.56;4877481;29;20028;-78
2023/12/01 09:57:37;;;;;;;10.93;7.75;;;;;;;7.16;67.16;93335.69;4882187;29;20614;-80
2023/12/01 10:00:10;;;;;;;9.13;6.22;;;;;;;7.19;69.33;93381.94;4878332;29;20153;-78
2023/12/01 10:02:37;;;;;;;15.85;7.97;;;;;;;7.48;68.27;93374.31;4889714;29;20044;-80
2023/12/01 10:05:03;;;;;;;8.95;4.70;;;;;;;7.32;68.53;93402.22;4880248;29;20523;-79
2023/12/01 10:07:29;;;;;;;17.35;5.85;;;;;;;7.29;69.14;93371.06;4875315;29;20353;-79
2023/12/01 10:09:54;;;;;;;15.63;8.38;;;;;;;7.61;68.49;93359.44;4879239;29;20080;-81
2023/12/01 10:12:20;;;;;;;12.05;6.90;;;;;;;7.60;67.92;93344.63;4875736;29;20080;-81
2023/12/01 10:14:46;;;;;;;10.27;5.57;;;;;;;7.76;67.61;93376.81;4879916;29;20906;-78
2023/12/01 10:17:14;;;;;;;13.52;8.20;;;;;;;7.83;67.75;93358.59;4874983;29;20586;-79
2023/12/01 10:19:45;;;;;;;8.73;4.72;;;;;;;7.82;67.48;93341.16;4877675;29;20305;-79
2023/12/01 10:22:13;;;;;;;7.18;4.35;;;;;;;7.73;67.22;93286.31;4877634;29;20123;-79
2023/12/01 10:24:38;;;;;;;7.65;4.22;;;;;;;8.12;68.23;93342.94;4880701;29;20037;-80
2023/12/01 10:27:08;;;;;;;9.77;4.80;;;;;;;8.28;65.81;93312.28;4878480;29;20045;-80
2023/12/01 10:29:35;;;;;;;7.05;3.28;;;;;;;8.43;65.22;93351.59;4875265;29;20113;-79
2023/12/01 10:32:11;;;;;;;6.40;3.30;;;;;;;8.37;65.34;93336.13;4879019;29;20052;-80
2023/12/01 10:34:41;;;;;;;7.47;3.42;;;;;;;8.56;64.60;93340.03;4879669;29;20115;-81
2023/12/01 10:37:07;;;;;;;5.70;3.03;;;;;;;8.86;66.40;93337.56;4893732;29;20048;-77
2023/12/01 10:39:33;;;;;;;7.70;4.50;;;;;;;9.27;64.53;93343.16;4876839;29;20033;-81
2023/12/01 10:41:59;;;;;;;10.07;3.75;;;;;;;9.55;64.37;93345.41;4882056;29;20047;-80
2023/12/01 10:44:42;;;;;;;6.15;3.38;;;;;;;9.60;61.73;93346.03;4893538;29;20096;-77
2023/12/01 10:47:09;;;;;;;9.05;4.60;;;;;;;9.38;62.04;93301.91;4870253;29;20123;-78
2023/12/01 10:49:35;;;;;;;10.50;4.82;;;;;;;9.59;62.11;93319.78;4880253;29;20029;-80
2023/12/01 10:52:01;;;;;;;11.45;6.38;;;;;;;9.66;61.54;93333.34;4875343;29;20041;-80
2023/12/01 10:54:27;;;;;;;12.05;6.38;;;;;;;9.55;61.25;93343.53;4881278;29;20292;-79
2023/12/01 10:57:26;;;;;;;11.35;5.65;;;;;;;9.48;61.38;93300.00;4873064;29;20044;-79
2023/12/01 10:59:53;;;;;;;12.43;6.45;;;;;;;9.79;61.50;93311.13;4893642;29;20056;-80
2023/12/01 11:02:22;;;;;;;9.95;6.30;;;;;;;10.01;61.66;93353.38;4895421;29;20128;-78
2023/12/01 11:04:48;;;;;;;19.70;7.38;;;;;;;9.78;59.70;93344.09;4880525;29;20358;-80
2023/12/01 11:07:35;;;;;;;12.77;7.80;;;;;;;9.40;61.71;93320.94;4881749;29;20029;-79
2023/12/01 11:10:31;;;;;;;8.90;7.40;;;;;;;9.28;62.62;93343.94;4876041;29;20433;-79
2023/12/01 11:13:19;;;;;;;14.35;7.95;;;;;;;9.13;62.89;93304.63;4885159;29;20106;-80
2023/12/01 11:15:49;;;;;;;10.93;7.78;;;;;;;9.02;63.98;93304.16;4883677;29;20037;-80
2023/12/01 11:18:15;;;;;;;11.93;7.88;;;;;;;8.87;64.02;93286.09;4901627;29;20379;-79
2023/12/01 11:20:43;;;;;;;13.90;7.32;;;;;;;9.27;63.99;93329.88;4884428;29;20037;-80
2023/12/01 11:23:23;;;;;;;11.45;7.30;;;;;;;9.18;63.23;93310.56;4886098;29;20036;-80
2023/12/01 11:26:05;;;;;;;14.10;7.72;;;;;;;9.11;63.91;93275.75;4886787;29;20602;-80
2023/12/01 11:33:52;;;;;;;11.45;6.32;;;;;;;9.49;63.96;93269.72;4877465;29;20048;-80
2023/12/01 11:36:27;;;;;;;14.80;7.18;;;;;;;9.38;64.00;93301.91;4871226;29;20040;-77
2023/12/01 11:41:43;;;;;;;14.13;7.95;;;;;;;9.35;63.47;93285.84;4895825;29;19948;-80